Nearby METAR Reports

 

KEDC - Austin Exec, Texas, USA
Distance from station: SW 16mi, 25km
Updated: Mon, 19-Oct-2020 9:35pm CDT
Few Clouds
Few Clouds
 Wind from SSE
Wind: SSE 8 mph , 13 km/h
Temperature: 81°F , 27°C
Heat Index: 85°F , 29°C
Dew Point: 70°F , 21°C
Humidity: 70%
Barometer: 29.97 inHg , 1014.9 hPa
Clouds: Few Clouds
Cloud details: Few Clouds 5000 ft
Few Clouds 6500 ft
2020/10/20 02:35 KEDC 200235Z AUTO 16007KT FEW050 FEW065 27/21 A2997 RMK AO2
KGTU - Georgetown, Texas, USA
Distance from station: WNW 17mi, 28km
Updated: Mon, 19-Oct-2020 8:56pm CDT
Mostly cloudy
Mostly cloudy
 Wind from NE
Wind: NE 7 mph , 11 km/h
Temperature: 79°F , 26°C
Dew Point: 66°F , 19°C
Humidity: 65%
Barometer: 29.99 inHg , 1015.6 hPa
Clouds: Mostly cloudy
Visibility: 10 miles , 16 km
Cloud details: Partly cloudy 3700 ft
Mostly cloudy 5000 ft
Mostly cloudy 6500 ft
2020/10/20 01:56 KGTU 200156Z 05006KT 10SM SCT037 BKN050 BKN065 26/19 A2999 RMK AO2 SLP148 T02610189
 
KATT - Austin/Mabry, Texas, USA
Distance from station: SW 28mi, 45km
Updated: Mon, 19-Oct-2020 8:51pm CDT
Clear
Clear
 Wind from SSE
Wind: SSE 7 mph , 11 km/h
Temperature: 82°F , 28°C
Heat Index: 86°F , 30°C
Dew Point: 70°F , 21°C
Humidity: 66%
Barometer: 29.96 inHg , 1014.6 hPa
Clouds: Clear
Visibility: 10 miles , 16 km
2020/10/20 01:51 KATT 200151Z AUTO 16006KT 10SM CLR 28/21 A2996 RMK AO2 SLP132 T02830211
KAUS - Austin, Texas, USA
Distance from station: SSW 32mi, 51km
Updated: Mon, 19-Oct-2020 8:53pm CDT
Partly cloudy
Partly cloudy
 Wind from SSE
Wind: SSE 10 mph , 17 km/h
Temperature: 82°F , 28°C
Heat Index: 86°F , 30°C
Dew Point: 72°F , 22°C
Humidity: 70%
Barometer: 29.95 inHg , 1014.2 hPa
Clouds: Partly cloudy
Visibility: 10 miles , 16 km
Cloud details: Partly cloudy 6000 ft
2020/10/20 01:53 KAUS 200153Z 15009KT 10SM SCT060 28/22 A2995 RMK AO2 SLP131 T02780222
 
KRYW - Lago Vista, Texas, USA
Distance from station: W 33mi, 54km
Updated: Mon, 19-Oct-2020 9:35pm CDT
Partly cloudy
Partly cloudy
 Wind from SE
Wind: SE 7 mph , 11 km/h
Temperature: 79°F , 26°C
Dew Point: 72°F , 22°C
Humidity: 79%
Barometer: 29.99 inHg , 1015.6 hPa
Clouds: Partly cloudy
Visibility: 10 miles , 16 km
Cloud details: Partly cloudy 5000 ft
2020/10/20 02:35 KRYW 200235Z AUTO 14006KT 10SM SCT050 26/22 A2999 RMK AO2 T02580215
KILE - Killeen Muni, Texas, USA
Distance from station: NNW 37mi, 59km
Updated: Mon, 19-Oct-2020 8:56pm CDT
Mostly cloudy
Mostly cloudy
 Wind from NE
Wind: NE 9 mph , 15 km/h
Temperature: 70°F , 21°C
Dew Point: 61°F , 16°C
Humidity: 73%
Barometer: 29.99 inHg , 1015.6 hPa
Clouds: Mostly cloudy
Visibility: 10 miles , 16 km
Cloud details: Mostly cloudy 6000 ft
2020/10/20 01:56 KILE 200156Z AUTO 05008KT 10SM BKN060 21/16 A2999 RMK AO2 SLP145 T02110156 PNO $
 
KTPL - Temple/Miller, Texas, USA
Distance from station: N 38mi, 61km
Updated: Mon, 19-Oct-2020 8:51pm CDT
Few Clouds
Few Clouds
 Wind from N
Wind: N 6 mph , 9 km/h
Temperature: 70°F , 21°C
Dew Point: 63°F , 17°C
Humidity: 78%
Barometer: 29.99 inHg , 1015.6 hPa
Clouds: Few Clouds
Visibility: 10 miles , 16 km
Cloud details: Few Clouds 5500 ft
2020/10/20 01:51 KTPL 200151Z AUTO 36005KT 10SM FEW055 21/17 A2999 RMK AO2 SLP147 T02110167
KGYB - Giddings-Lee, Texas, USA
Distance from station: SE 39mi, 62km
Updated: Mon, 19-Oct-2020 9:35pm CDT
Clear
Clear
 Wind from SSE
Wind: SSE 7 mph , 11 km/h
Temperature: 81°F , 27°C
Heat Index: 86°F , 30°C
Dew Point: 73°F , 23°C
Humidity: 79%
Barometer: 29.98 inHg , 1015.2 hPa
Clouds: Clear
Visibility: 10 miles , 16 km
2020/10/20 02:35 KGYB 200235Z AUTO 15006KT 10SM CLR 27/23 A2998 RMK AO2 T02650232
 
KGRK - Gray/Ft Hood, Texas, USA
Distance from station: NW 42mi, 67km
Updated: Mon, 19-Oct-2020 7:58pm CDT
NOT Current
Haze, Clear
Haze, Clear
 Wind from NE
Wind: NE 10 mph , 17 km/h
Temperature: 72°F , 22°C
Dew Point: 61°F , 16°C
Humidity: 69%
Barometer: 29.96 inHg , 1014.6 hPa
Summary: Haze
Clouds: Clear
Visibility: 4 miles , 6 km
2020/10/20 00:58 KGRK 200058Z AUTO 04009KT 4SM HZ CLR 22/16 A2996 RMK AO2 SLP139 T02240160
KHLR - Ft Hood/Killeen, Texas, USA
Distance from station: NNW 42mi, 67km
Updated: Mon, 19-Oct-2020 7:58pm CDT
NOT Current
Haze, Clear
Haze, Clear
 Wind from NE
Wind: NE 9 mph , 15 km/h
Temperature: 72°F , 22°C
Dew Point: 61°F , 16°C
Humidity: 69%
Barometer: 29.97 inHg , 1014.9 hPa
Summary: Haze
Clouds: Clear
Visibility: 1 1/4 miles , 2 km
2020/10/20 00:58 KHLR 200058Z AUTO 04008KT 1 1/4SM HZ CLR 22/16 A2997 RMK AO2 SLP142 T02240160
 
KRWV - Caldwell, Texas, USA
Distance from station: E 43mi, 69km
Updated: Mon, 19-Oct-2020 9:35pm CDT
Clear
Clear
 Wind from SSE
Wind: SSE 9 mph , 15 km/h
Temperature: 77°F , 25°C
Dew Point: 75°F , 24°C
Humidity: 94%
Barometer: 29.98 inHg , 1015.2 hPa
Clouds: Clear
Visibility: 10 miles , 16 km
2020/10/20 02:35 KRWV 200235Z AUTO 15008KT 10SM CLR 25/24 A2998 RMK AO2 T02480242
KBMQ - Burnet, Texas, USA
Distance from station: WNW 50mi, 80km
Updated: Mon, 19-Oct-2020 8:53pm CDT
Mostly cloudy
Mostly cloudy
 Wind from NE
Wind: NE 8 mph , 13 km/h
Temperature: 75°F , 24°C
Dew Point: 64°F , 18°C
Humidity: 69%
Barometer: 29.99 inHg , 1015.6 hPa
Clouds: Mostly cloudy
Visibility: 10 miles , 16 km
Cloud details: Mostly cloudy 5500 ft
2020/10/20 01:53 KBMQ 200153Z AUTO 04007KT 10SM BKN055 24/18 A2999 RMK AO2 SLP141 T02440178